Time;durP1;ratioP1;P1;durP2;ratioP2;P2;SDS_P1;SDS_P2;PMS_P1;PMS_P2;Temp;Humidity;BMP_temperature;BMP_pressure;BME280_temperature;BME280_humidity;BME280_pressure;Samples;Min_cycle;Max_cycle;Signal;HPM_P1;HPM_P2
2022/05/03 00:02:05;;;;;;;7.47;6.10;;;;;;;9.12;100.00;98792.50;5029308;28;20480;-79
2022/05/03 00:04:39;;;;;;;8.95;6.70;;;;;;;9.25;100.00;98819.00;5028569;28;20057;-79
2022/05/03 00:07:15;;;;;;;14.60;6.80;;;;;;;9.06;100.00;98804.91;5029122;28;20064;-79
2022/05/03 00:10:00;;;;;;;12.35;6.55;;;;;;;9.06;100.00;98814.94;5032071;28;20067;-79
2022/05/03 00:12:32;;;;;;;8.02;6.25;;;;;;;9.11;100.00;98788.94;5031589;28;20049;-79
2022/05/03 00:15:01;;;;;;;7.72;6.07;;;;;;;9.26;100.00;98797.09;5025276;28;20053;-79
2022/05/03 00:17:29;;;;;;;7.30;5.82;;;;;;;9.26;100.00;98799.81;5032495;28;20132;-79
2022/05/03 00:19:55;;;;;;;8.68;6.20;;;;;;;9.10;100.00;98778.28;5031960;28;20049;-78
2022/05/03 00:22:22;;;;;;;8.68;6.15;;;;;;;8.91;100.00;98785.06;5015885;28;20049;-79
2022/05/03 00:24:54;;;;;;;8.70;6.00;;;;;;;8.94;100.00;98785.56;5028923;28;20060;-79
2022/05/03 00:27:24;;;;;;;11.70;6.55;;;;;;;9.07;100.00;98787.63;5027209;28;20061;-79
2022/05/03 00:29:52;;;;;;;7.80;6.15;;;;;;;9.04;100.00;98788.81;5031234;28;20049;-79
2022/05/03 00:32:20;;;;;;;8.38;6.65;;;;;;;9.07;100.00;98784.91;5023450;28;20064;-79
2022/05/03 00:34:48;;;;;;;8.73;6.30;;;;;;;9.21;100.00;98769.69;5024898;28;20091;-79
2022/05/03 00:37:14;;;;;;;7.70;6.20;;;;;;;9.16;100.00;98781.09;5027389;28;20495;-79
2022/05/03 00:39:41;;;;;;;8.30;6.30;;;;;;;9.18;100.00;98770.06;5030253;28;20041;-79
2022/05/03 00:42:15;;;;;;;7.65;5.88;;;;;;;9.23;100.00;98786.63;5023650;28;20049;-79
2022/05/03 00:44:59;;;;;;;6.75;5.85;;;;;;;9.29;100.00;98791.31;5028815;28;20481;-79
2022/05/03 00:47:36;;;;;;;8.38;5.75;;;;;;;9.22;100.00;98798.50;5023422;28;20568;-79
2022/05/03 00:50:05;;;;;;;9.57;6.50;;;;;;;9.08;100.00;98785.75;5025787;28;20077;-79
2022/05/03 00:52:37;;;;;;;8.57;5.55;;;;;;;9.08;100.00;98766.75;5028060;28;20046;-79
2022/05/03 00:55:33;;;;;;;11.00;6.68;;;;;;;9.13;100.00;98767.91;5023434;28;20498;-79
2022/05/03 00:58:16;;;;;;;6.28;5.65;;;;;;;9.21;100.00;98796.81;4976837;28;20046;-79
2022/05/03 01:00:52;;;;;;;8.57;5.32;;;;;;;9.08;100.00;98769.47;5020484;28;20045;-79
2022/05/03 01:03:26;;;;;;;6.43;5.20;;;;;;;9.11;100.00;98794.38;5020293;28;20064;-79
2022/05/03 01:06:14;;;;;;;6.57;5.35;;;;;;;9.19;100.00;98785.31;5022949;28;20053;-80
2022/05/03 01:08:52;;;;;;;8.63;5.90;;;;;;;9.20;100.00;98795.97;5021830;28;20473;-79
2022/05/03 01:11:34;;;;;;;9.35;5.60;;;;;;;9.12;100.00;98790.66;5022411;28;20477;-79
2022/05/03 01:14:13;;;;;;;8.10;5.50;;;;;;;9.13;100.00;98786.88;5026728;28;20041;-79
2022/05/03 01:16:50;;;;;;;8.43;5.30;;;;;;;8.89;100.00;98754.59;5024176;28;20050;-78
2022/05/03 01:19:33;;;;;;;9.82;5.22;;;;;;;9.03;100.00;98789.00;5020896;28;20046;-79
2022/05/03 01:22:09;;;;;;;8.50;6.10;;;;;;;8.80;100.00;98772.81;5029198;28;20504;-79
2022/05/03 01:24:58;;;;;;;11.25;6.32;;;;;;;8.91;100.00;98772.34;5022276;28;20058;-79
2022/05/03 01:27:56;;;;;;;10.50;6.82;;;;;;;8.93;100.00;98783.88;5019799;28;20065;-79
2022/05/03 01:30:27;;;;;;;7.85;5.75;;;;;;;8.65;100.00;98779.00;5018273;28;20271;-79
2022/05/03 01:33:03;;;;;;;7.53;5.72;;;;;;;8.66;100.00;98799.66;5028612;28;20072;-79
2022/05/03 01:35:38;;;;;;;10.07;6.85;;;;;;;8.45;100.00;98773.25;5023856;28;20049;-79
2022/05/03 01:38:16;;;;;;;9.90;6.15;;;;;;;8.54;100.00;98782.16;5026527;28;20512;-79
2022/05/03 01:41:00;;;;;;;9.73;6.35;;;;;;;8.47;100.00;98784.72;5027563;28;20101;-79
2022/05/03 01:43:37;;;;;;;7.78;5.88;;;;;;;8.68;100.00;98807.63;5023975;28;20049;-79
2022/05/03 01:46:13;;;;;;;7.90;5.72;;;;;;;8.68;100.00;98791.34;5028838;28;20050;-79
2022/05/03 01:51:43;;;;;;;8.25;5.75;;;;;;;8.73;100.00;98802.50;5019215;28;20049;-79
2022/05/03 01:54:24;;;;;;;7.15;5.78;;;;;;;8.41;100.00;98768.34;5018115;28;20096;-79
2022/05/03 01:56:58;;;;;;;7.78;5.50;;;;;;;8.25;100.00;98791.81;5028010;28;20045;-79
2022/05/03 01:59:39;;;;;;;6.95;5.72;;;;;;;8.14;100.00;98784.09;5027048;28;20477;-79
2022/05/03 02:02:15;;;;;;;7.20;5.30;;;;;;;8.24;100.00;98784.69;5026000;28;20049;-79
2022/05/03 02:05:00;;;;;;;10.10;5.40;;;;;;;8.14;100.00;98782.25;5024116;28;20045;-79
2022/05/03 02:07:41;;;;;;;7.30;5.22;;;;;;;8.13;100.00;98793.25;5020570;28;20060;-79
2022/05/03 02:10:14;;;;;;;7.47;5.60;;;;;;;8.06;100.00;98790.41;5017456;28;20421;-79
2022/05/03 02:12:46;;;;;;;9.20;5.53;;;;;;;8.04;100.00;98773.50;5025389;28;20489;-79
2022/05/03 02:15:19;;;;;;;7.82;5.95;;;;;;;8.22;100.00;98810.25;5022529;28;20061;-79
2022/05/03 02:17:55;;;;;;;7.07;5.50;;;;;;;7.91;100.00;98793.00;5022654;28;20504;-79
2022/05/03 02:20:36;;;;;;;9.05;5.35;;;;;;;7.80;100.00;98788.84;5021390;28;20460;-79
2022/05/03 02:23:10;;;;;;;;;;;;;;;7.84;100.00;98789.31;5024171;28;20052;-79
2022/05/03 02:25:56;;;;;;;5.93;4.82;;;;;;;7.57;100.00;98759.03;5023706;28;20359;-79
2022/05/03 02:28:27;;;;;;;7.65;5.60;;;;;;;7.90;100.00;98801.31;5022316;28;20061;-79
2022/05/03 02:30:55;;;;;;;7.07;5.63;;;;;;;7.61;100.00;98776.56;5027340;28;20045;-79
2022/05/03 02:33:29;;;;;;;7.07;5.82;;;;;;;7.72;100.00;98783.47;5024098;28;20053;-79
2022/05/03 02:35:58;;;;;;;9.15;4.95;;;;;;;7.68;100.00;98778.56;5024911;28;20046;-79
2022/05/03 02:38:33;;;;;;;11.80;6.18;;;;;;;7.58;100.00;98776.09;5027209;28;20496;-79
2022/05/03 02:41:03;;;;;;;6.68;5.18;;;;;;;7.57;100.00;98798.72;5027251;28;20045;-79
2022/05/03 02:43:31;;;;;;;7.28;5.82;;;;;;;7.29;100.00;98790.19;5023813;28;20560;-79
2022/05/03 02:46:10;;;;;;;8.93;5.38;;;;;;;7.23;100.00;98791.75;5025243;28;20401;-79
2022/05/03 02:48:47;;;;;;;11.30;6.20;;;;;;;7.21;100.00;98773.00;5022063;28;20398;-79
2022/05/03 02:51:16;;;;;;;8.93;5.90;;;;;;;7.47;100.00;98807.06;5022652;28;20312;-79
2022/05/03 02:53:46;;;;;;;6.53;5.45;;;;;;;7.38;100.00;98792.72;5025849;28;20052;-79
2022/05/03 02:56:22;;;;;;;7.10;5.93;;;;;;;7.22;100.00;98779.25;5020819;28;20288;-79
2022/05/03 02:59:02;;;;;;;7.47;5.35;;;;;;;7.35;100.00;98790.38;5027509;28;20119;-78
2022/05/03 03:01:50;;;;;;;;;;;;;;;7.49;100.00;98796.91;5014664;28;20056;-78
2022/05/03 03:04:25;;;;;;;6.72;5.15;;;;;;;7.35;100.00;98763.31;5022088;28;19960;-79
2022/05/03 03:06:55;;;;;;;8.27;5.47;;;;;;;7.37;100.00;98807.25;5024007;28;20052;-79
2022/05/03 03:09:26;;;;;;;5.35;4.13;;;;;;;7.19;100.00;98769.59;5029622;28;20041;-79
2022/05/03 03:11:59;;;;;;;7.15;5.30;;;;;;;7.04;100.00;98760.53;5028709;28;20042;-79
2022/05/03 03:14:35;;;;;;;6.97;5.38;;;;;;;7.04;100.00;98758.66;5028933;28;20061;-79
2022/05/03 03:17:05;;;;;;;6.28;5.53;;;;;;;7.18;100.00;98761.66;5021203;28;20046;-79
2022/05/03 03:20:06;;;;;;;12.30;5.43;;;;;;;7.29;100.00;98782.94;5028775;28;20053;-78
2022/05/03 03:22:37;;;;;;;8.23;5.03;;;;;;;7.26;100.00;98786.84;5025149;28;20052;-79
2022/05/03 03:25:05;;;;;;;6.25;4.97;;;;;;;6.99;100.00;98752.94;5030064;28;20624;-79
2022/05/03 03:27:33;;;;;;;8.23;5.22;;;;;;;7.17;100.00;98770.81;5028147;28;20532;-79
2022/05/03 03:30:02;;;;;;;9.32;5.60;;;;;;;7.18;100.00;98759.84;5032259;28;20037;-79
2022/05/03 03:32:29;;;;;;;6.43;5.45;;;;;;;7.27;100.00;98782.25;5029200;28;20489;-78
2022/05/03 03:34:58;;;;;;;6.70;5.28;;;;;;;7.30;100.00;98786.47;5032815;28;20054;-79
2022/05/03 03:37:26;;;;;;;7.63;5.65;;;;;;;7.40;100.00;98782.56;5026990;28;20068;-78
2022/05/03 03:39:53;;;;;;;6.22;4.88;;;;;;;7.36;100.00;98793.91;5033167;28;20045;-79
2022/05/03 03:42:19;;;;;;;6.72;4.53;;;;;;;7.11;100.00;98760.69;5028894;28;20500;-79
2022/05/03 03:44:47;;;;;;;8.27;5.05;;;;;;;6.87;100.00;98765.13;5029976;28;20120;-78
2022/05/03 03:47:14;;;;;;;11.15;5.88;;;;;;;6.99;100.00;98774.56;5025383;28;20103;-78
2022/05/03 03:49:41;;;;;;;5.30;4.80;;;;;;;7.19;100.00;98793.94;5024053;28;20425;-79
2022/05/03 03:52:10;;;;;;;7.38;4.82;;;;;;;7.11;100.00;98802.06;5027529;28;20042;-79
2022/05/03 03:54:39;;;;;;;8.35;5.78;;;;;;;6.94;100.00;98786.88;5024307;28;20045;-79
2022/05/03 03:57:06;;;;;;;9.75;6.03;;;;;;;7.10;100.00;98786.88;5028679;28;20080;-79
2022/05/03 03:59:34;;;;;;;7.53;5.18;;;;;;;7.25;100.00;98808.63;5031034;28;20119;-78
2022/05/03 04:02:03;;;;;;;7.72;5.07;;;;;;;7.16;100.00;98804.25;5028779;28;20061;-79
2022/05/03 04:04:32;;;;;;;10.20;5.70;;;;;;;6.89;100.00;98785.56;5030490;28;20452;-78
2022/05/03 04:07:00;;;;;;;9.23;5.55;;;;;;;6.88;100.00;98805.47;5028074;28;20049;-79
2022/05/03 04:09:29;;;;;;;12.18;5.90;;;;;;;6.88;100.00;98788.41;5023076;28;20129;-78
2022/05/03 04:11:58;;;;;;;8.27;5.72;;;;;;;6.78;100.00;98812.09;5030803;28;20397;-79
2022/05/03 04:14:25;;;;;;;10.90;5.90;;;;;;;6.72;100.00;98782.00;5021854;28;20052;-78
2022/05/03 04:16:52;;;;;;;8.32;5.53;;;;;;;6.81;100.00;98782.03;5021835;28;20050;-79
2022/05/03 04:19:18;;;;;;;5.35;4.50;;;;;;;6.62;100.00;98780.50;5030124;28;20056;-79
2022/05/03 04:21:47;;;;;;;9.07;6.35;;;;;;;6.71;100.00;98783.03;5030952;28;20401;-78
2022/05/03 04:24:13;;;;;;;8.60;6.05;;;;;;;6.84;100.00;98787.91;5024700;28;20482;-79
2022/05/03 04:26:41;;;;;;;9.68;6.03;;;;;;;6.93;100.00;98788.75;5026946;28;20065;-79
2022/05/03 04:29:08;;;;;;;10.35;7.63;;;;;;;6.99;100.00;98793.47;5029669;28;20049;-79
2022/05/03 04:31:36;;;;;;;7.13;5.70;;;;;;;7.13;100.00;98810.00;5028054;28;20045;-78
2022/05/03 04:34:04;;;;;;;7.63;6.18;;;;;;;7.28;100.00;98807.47;5029287;28;20052;-79
2022/05/03 04:36:32;;;;;;;7.35;5.85;;;;;;;7.11;100.00;98795.84;5024272;28;20383;-78
2022/05/03 04:39:01;;;;;;;6.53;5.68;;;;;;;6.98;100.00;98789.06;5028849;28;20050;-79
2022/05/03 04:41:28;;;;;;;7.45;5.78;;;;;;;7.24;100.00;98820.44;5027540;28;20489;-79
2022/05/03 04:43:56;;;;;;;6.90;5.32;;;;;;;6.98;100.00;98791.78;5028730;28;20054;-78
2022/05/03 04:46:22;;;;;;;6.70;5.13;;;;;;;7.04;100.00;98790.25;5028260;28;20056;-78
2022/05/03 04:48:49;;;;;;;10.27;5.35;;;;;;;7.11;100.00;98802.06;5018692;28;20056;-79
2022/05/03 04:51:20;;;;;;;9.05;5.80;;;;;;;7.15;100.00;98806.13;5023053;28;20065;-78
2022/05/03 04:53:47;;;;;;;7.03;5.00;;;;;;;7.34;100.00;98823.81;5027231;28;20045;-79
2022/05/03 04:56:18;;;;;;;9.88;6.07;;;;;;;7.23;100.00;98818.78;5024513;28;20041;-79
2022/05/03 04:58:45;;;;;;;7.95;5.63;;;;;;;7.35;100.00;98832.81;5027716;28;20146;-78
2022/05/03 05:01:13;;;;;;;7.38;5.57;;;;;;;7.41;100.00;98830.22;5029513;28;20050;-78
2022/05/03 05:03:40;;;;;;;6.97;5.03;;;;;;;7.42;100.00;98813.00;5027233;28;20045;-79
2022/05/03 05:06:07;;;;;;;8.10;5.15;;;;;;;7.57;100.00;98840.19;5030638;28;20520;-78
2022/05/03 05:08:34;;;;;;;6.60;5.13;;;;;;;7.56;100.00;98840.34;5018299;28;20042;-78
2022/05/03 05:11:05;;;;;;;7.00;5.97;;;;;;;7.71;100.00;98837.78;5031645;28;20041;-79
2022/05/03 05:13:31;;;;;;;;;;;;;;;7.85;100.00;98853.25;5019365;28;20054;-79
2022/05/03 05:15:58;;;;;;;7.28;5.43;;;;;;;7.81;100.00;98835.69;5029585;28;19947;-79
2022/05/03 05:18:27;;;;;;;6.57;5.85;;;;;;;7.84;100.00;98842.63;5020079;28;20053;-78
2022/05/03 05:20:54;;;;;;;6.95;5.60;;;;;;;7.81;100.00;98819.44;5019857;28;20041;-78
2022/05/03 05:23:20;;;;;;;11.25;6.05;;;;;;;8.07;100.00;98813.75;5015958;28;20038;-78
2022/05/03 05:25:48;;;;;;;8.40;6.13;;;;;;;8.64;100.00;98812.56;5029954;28;20392;-78
2022/05/03 05:28:15;;;;;;;8.98;6.53;;;;;;;9.02;100.00;98817.16;5021592;28;20512;-78
2022/05/03 05:30:41;;;;;;;7.03;5.60;;;;;;;9.35;100.00;98825.00;5026747;28;20397;-79
2022/05/03 05:33:08;;;;;;;7.18;5.13;;;;;;;9.99;100.00;98837.16;5010321;28;20053;-78
2022/05/03 05:35:36;;;;;;;6.82;5.45;;;;;;;10.02;100.00;98828.63;5020854;28;20045;-78
2022/05/03 05:38:03;;;;;;;7.70;5.22;;;;;;;10.50;100.00;98831.72;5022389;28;20052;-79
2022/05/03 05:40:30;;;;;;;7.28;5.80;;;;;;;10.49;100.00;98815.59;5006988;28;20056;-78
2022/05/03 05:42:57;;;;;;;8.57;6.95;;;;;;;10.43;100.00;98819.94;4998892;28;20195;-79
2022/05/03 05:45:23;;;;;;;7.07;5.38;;;;;;;11.06;100.00;98839.16;5030283;28;20058;-79
2022/05/03 05:47:50;;;;;;;8.63;5.50;;;;;;;11.23;100.00;98830.72;5029076;28;20049;-79
2022/05/03 05:50:17;;;;;;;6.43;4.95;;;;;;;11.14;100.00;98821.84;5025960;28;20061;-79
2022/05/03 05:55:28;;;;;;;6.13;5.05;;;;;;;11.71;99.92;98840.88;4995223;28;20167;-79
2022/05/03 05:57:55;;;;;;;6.85;5.20;;;;;;;11.90;98.47;98851.06;5029607;28;20049;-79
2022/05/03 06:00:21;;;;;;;6.25;5.07;;;;;;;11.92;96.72;98827.16;5028139;28;20052;-79
2022/05/03 06:02:48;;;;;;;7.82;4.63;;;;;;;12.18;95.74;98831.94;5026546;28;20046;-79
2022/05/03 06:05:15;;;;;;;8.82;5.53;;;;;;;12.48;92.83;98826.19;5010676;28;20054;-79
2022/05/03 06:07:46;;;;;;;10.45;5.03;;;;;;;12.96;91.98;98866.13;5026935;28;20409;-79
2022/05/03 06:10:13;;;;;;;6.25;5.28;;;;;;;12.86;89.81;98854.81;5023601;28;20061;-79
2022/05/03 06:12:40;;;;;;;7.68;5.47;;;;;;;12.73;91.57;98828.31;5031659;28;20057;-79
2022/05/03 06:15:08;;;;;;;13.20;5.43;;;;;;;13.22;88.30;98816.19;5032616;28;20107;-78
2022/05/03 06:17:36;;;;;;;11.98;5.32;;;;;;;13.36;85.70;98836.16;5027003;28;20046;-79
2022/05/03 06:20:02;;;;;;;7.63;5.22;;;;;;;13.25;87.86;98836.78;5020931;28;20056;-79
2022/05/03 06:22:29;;;;;;;7.43;5.03;;;;;;;13.71;86.63;98852.28;5029137;28;20144;-79
2022/05/03 06:24:57;;;;;;;6.53;5.38;;;;;;;13.99;85.74;98862.13;5029861;28;20049;-79
2022/05/03 06:27:23;;;;;;;7.53;5.05;;;;;;;13.89;84.69;98854.34;5030141;28;20410;-79
2022/05/03 06:29:50;;;;;;;9.35;5.18;;;;;;;14.11;83.58;98826.75;5030325;28;20055;-79
2022/05/03 06:32:17;;;;;;;8.85;5.13;;;;;;;14.57;81.68;98861.22;5028756;28;20054;-79
2022/05/03 06:34:43;;;;;;;10.15;5.05;;;;;;;14.49;80.98;98845.09;5021606;28;20046;-79
2022/05/03 06:37:10;;;;;;;14.70;5.90;;;;;;;14.72;80.94;98865.63;5029811;28;20481;-79
2022/05/03 06:39:37;;;;;;;9.52;5.43;;;;;;;14.88;79.23;98825.97;5030507;28;20046;-79
2022/05/03 06:42:06;;;;;;;5.70;4.88;;;;;;;14.18;84.20;98829.44;5030043;28;20045;-79
2022/05/03 06:44:33;;;;;;;10.20;5.68;;;;;;;14.32;84.14;98855.69;5031832;28;20071;-79
2022/05/03 06:46:59;;;;;;;12.18;5.22;;;;;;;14.80;81.70;98855.25;5033007;28;20079;-79
2022/05/03 06:49:26;;;;;;;15.75;5.80;;;;;;;14.89;79.83;98842.16;5028548;28;20045;-79
2022/05/03 06:51:52;;;;;;;7.03;5.03;;;;;;;14.83;80.04;98860.28;5014008;28;20410;-79
2022/05/03 06:54:19;;;;;;;9.38;5.63;;;;;;;14.76;80.77;98845.81;5033409;28;20045;-79
2022/05/03 06:56:46;;;;;;;8.15;5.72;;;;;;;15.01;79.68;98869.66;5034237;28;20136;-79
2022/05/03 06:59:13;;;;;;;6.85;5.85;;;;;;;15.20;79.79;98833.09;5034079;28;20057;-79
2022/05/03 07:01:40;;;;;;;6.78;5.55;;;;;;;14.82;81.90;98860.50;5024260;28;20402;-79
2022/05/03 07:04:07;;;;;;;10.18;5.70;;;;;;;15.20;79.74;98829.50;5033017;28;20115;-79
2022/05/03 07:06:33;;;;;;;8.85;5.95;;;;;;;15.64;80.61;98841.34;5033733;28;20511;-79
2022/05/03 07:09:00;;;;;;;8.52;6.35;;;;;;;15.74;77.33;98857.25;5034354;28;20055;-79
2022/05/03 07:11:26;;;;;;;9.88;5.63;;;;;;;16.34;75.93;98862.09;5032541;28;20049;-79
2022/05/03 07:13:53;;;;;;;7.30;5.70;;;;;;;15.77;76.38;98851.31;5033186;28;20045;-79
2022/05/03 07:16:21;;;;;;;8.73;5.70;;;;;;;16.32;74.80;98866.13;5032096;28;20057;-79
2022/05/03 07:24:15;;;;;;;8.15;5.30;;;;;;;17.41;69.21;98863.34;5032996;28;20052;-79
2022/05/03 07:26:42;;;;;;;7.45;5.25;;;;;;;16.94;69.29;98836.59;5029547;28;20045;-79
2022/05/03 07:29:08;;;;;;;6.57;5.68;;;;;;;16.69;72.36;98860.59;5033543;28;20537;-79
2022/05/03 07:31:40;;;;;;;9.43;6.22;;;;;;;16.66;72.66;98841.84;5025216;28;20049;-79
2022/05/03 07:34:06;;;;;;;6.90;5.13;;;;;;;17.09;70.10;98860.06;5032065;28;20192;-79
2022/05/03 07:36:33;;;;;;;7.00;5.32;;;;;;;16.79;73.37;98869.94;5033467;28;20045;-79
2022/05/03 07:39:00;;;;;;;6.97;4.97;;;;;;;16.72;72.35;98860.13;5033519;28;20436;-79
2022/05/03 07:41:26;;;;;;;7.10;5.28;;;;;;;16.70;72.52;98862.28;5031894;28;20404;-79
2022/05/03 07:43:53;;;;;;;7.28;5.55;;;;;;;16.58;74.24;98864.97;5032517;28;20041;-79
2022/05/03 07:46:19;;;;;;;8.18;5.32;;;;;;;17.02;72.97;98867.56;5032959;28;20049;-80
2022/05/03 07:48:48;;;;;;;5.82;5.22;;;;;;;17.19;69.97;98873.19;5014454;28;20058;-79
2022/05/03 07:51:17;;;;;;;6.00;4.55;;;;;;;17.20;69.39;98859.22;5013504;28;20379;-79
2022/05/03 07:53:43;;;;;;;8.60;4.75;;;;;;;17.35;68.49;98850.53;5012978;28;20054;-79
2022/05/03 07:56:10;;;;;;;6.00;4.60;;;;;;;17.75;69.06;98855.34;5023313;28;20057;-79
2022/05/03 07:58:37;;;;;;;8.25;4.22;;;;;;;17.35;67.75;98850.53;5031673;28;20378;-79
2022/05/03 08:01:05;;;;;;;6.75;4.75;;;;;;;17.21;69.52;98852.69;5033087;28;20060;-79
2022/05/03 08:03:31;;;;;;;8.70;5.10;;;;;;;17.04;70.77;98869.00;5025451;28;20123;-79
2022/05/03 08:05:59;;;;;;;5.90;4.40;;;;;;;17.39;70.90;98881.13;5013259;28;20042;-80
2022/05/03 08:08:26;;;;;;;8.98;4.25;;;;;;;17.66;68.85;98852.13;5032609;28;20111;-80
2022/05/03 08:10:53;;;;;;;6.00;4.93;;;;;;;17.64;69.94;98854.28;5032937;28;20059;-80
2022/05/03 08:13:19;;;;;;;7.97;5.10;;;;;;;17.34;69.76;98884.56;5030403;28;20053;-80
2022/05/03 08:15:46;;;;;;;6.32;4.78;;;;;;;17.73;68.29;98871.22;5032815;28;20053;-80
2022/05/03 08:18:13;;;;;;;6.95;4.82;;;;;;;18.07;66.36;98865.19;5011864;28;20387;-80
2022/05/03 08:20:39;;;;;;;7.50;4.57;;;;;;;18.17;66.32;98846.13;5013174;28;20210;-80
2022/05/03 08:23:07;;;;;;;7.53;4.20;;;;;;;18.25;63.88;98848.50;5012286;28;20052;-80
2022/05/03 08:25:36;;;;;;;5.90;4.28;;;;;;;18.47;62.75;98867.09;5013264;28;20445;-80
2022/05/03 08:28:03;;;;;;;7.35;4.65;;;;;;;18.28;64.05;98859.03;5027935;28;20107;-80
2022/05/03 08:30:30;;;;;;;8.65;4.07;;;;;;;18.41;62.88;98844.13;5030872;28;20081;-80
2022/05/03 08:32:56;;;;;;;6.93;4.30;;;;;;;18.37;63.42;98849.31;5028171;28;20129;-80
2022/05/03 08:35:24;;;;;;;5.93;4.40;;;;;;;18.33;64.81;98848.09;5031364;28;20049;-80
2022/05/03 08:43:20;;;;;;;5.43;4.30;;;;;;;19.22;60.83;98870.75;5031019;28;20551;-80
2022/05/03 08:45:49;;;;;;;5.60;4.57;;;;;;;19.25;61.91;98873.03;5032321;28;20156;-80
2022/05/03 08:48:18;;;;;;;7.10;4.17;;;;;;;19.00;60.37;98854.97;5022906;28;20513;-80
2022/05/03 08:50:46;;;;;;;7.75;3.90;;;;;;;19.25;60.96;98881.28;5032147;28;20516;-80
2022/05/03 08:53:13;;;;;;;7.82;5.10;;;;;;;19.27;60.97;98884.66;5031534;28;20420;-80
2022/05/03 08:55:42;;;;;;;8.35;4.05;;;;;;;19.01;61.00;98864.88;5032015;28;20057;-80
2022/05/03 08:58:08;;;;;;;4.63;3.53;;;;;;;19.23;60.51;98853.16;5031663;28;20057;-81
2022/05/03 09:00:36;;;;;;;9.75;3.88;;;;;;;19.64;58.46;98843.59;5031870;28;20555;-80
2022/05/03 09:03:04;;;;;;;7.05;4.38;;;;;;;19.59;59.84;98848.22;5024919;28;20081;-80
2022/05/03 09:05:30;;;;;;;8.35;4.45;;;;;;;19.09;61.11;98871.94;5031091;28;20147;-80
2022/05/03 09:08:00;;;;;;;7.57;4.03;;;;;;;19.14;61.21;98869.25;5031275;28;20046;-80
2022/05/03 09:10:28;;;;;;;6.15;4.10;;;;;;;19.05;60.30;98859.72;5031843;28;20525;-81
2022/05/03 09:13:13;;;;;;;5.22;3.83;;;;;;;18.96;61.43;98873.06;5030774;28;20053;-80
2022/05/03 09:15:41;;;;;;;6.28;4.13;;;;;;;18.73;60.45;98858.28;5031925;28;20133;-80
2022/05/03 09:18:10;;;;;;;6.60;3.72;;;;;;;18.74;61.58;98850.84;5029226;28;20071;-80
2022/05/03 09:26:11;;;;;;;15.68;3.75;;;;;;;19.23;61.15;98867.75;5031169;28;20114;-80
2022/05/03 09:28:48;;;;;;;6.85;3.35;;;;;;;19.15;59.98;98859.91;5031472;28;20303;-80
2022/05/03 09:31:27;;;;;;;4.10;3.15;;;;;;;19.49;58.38;98859.09;5027463;28;20049;-80
2022/05/03 09:33:54;;;;;;;5.13;3.25;;;;;;;19.70;57.41;98855.56;5011053;28;20061;-80
2022/05/03 09:36:21;;;;;;;5.70;3.75;;;;;;;19.56;57.31;98866.09;5030229;28;20045;-80
2022/05/03 09:38:48;;;;;;;6.03;3.55;;;;;;;19.46;57.65;98865.94;5031317;28;20464;-80
2022/05/03 09:41:16;;;;;;;6.78;3.85;;;;;;;19.49;59.37;98856.34;5031038;28;20053;-80
2022/05/03 09:44:06;;;;;;;5.05;3.13;;;;;;;19.60;57.48;98864.53;5024490;28;20413;-80
2022/05/03 09:46:52;;;;;;;4.32;3.13;;;;;;;19.61;57.37;98835.84;5025698;28;20493;-81
2022/05/03 09:49:20;;;;;;;3.30;2.97;;;;;;;19.72;57.40;98836.00;5027357;28;20508;-80
2022/05/03 09:51:47;;;;;;;3.00;2.65;;;;;;;19.70;56.90;98832.69;5031462;28;20052;-81
2022/05/03 09:54:14;;;;;;;3.83;3.13;;;;;;;19.77;56.35;98836.94;5030430;28;20429;-80
2022/05/03 09:56:42;;;;;;;6.75;3.08;;;;;;;19.96;54.61;98858.72;5024984;28;20055;-81
2022/05/03 09:59:10;;;;;;;4.55;3.83;;;;;;;19.46;55.34;98846.63;5029814;28;20053;-80
2022/05/03 10:01:37;;;;;;;7.38;3.28;;;;;;;19.34;57.16;98843.97;5028508;28;20045;-80
2022/05/03 10:04:06;;;;;;;2.92;2.60;;;;;;;19.36;56.39;98821.66;5028664;28;20052;-81
2022/05/03 10:06:33;;;;;;;3.67;3.25;;;;;;;19.57;55.00;98847.63;5025340;28;20118;-80
2022/05/03 10:09:00;;;;;;;4.78;3.10;;;;;;;19.89;54.29;98836.84;5030666;28;20493;-81
2022/05/03 10:11:28;;;;;;;6.10;3.03;;;;;;;19.82;54.38;98844.47;5030608;28;20051;-81
2022/05/03 10:13:55;;;;;;;4.13;2.78;;;;;;;19.72;55.35;98831.34;5028083;28;20064;-81
2022/05/03 10:22:00;;;;;;;2.90;2.60;;;;;;;20.39;51.78;98823.16;5026208;28;20088;-81
2022/05/03 10:24:27;;;;;;;6.78;2.53;;;;;;;20.83;52.59;98828.63;5019958;28;20054;-81
2022/05/03 10:27:02;;;;;;;3.08;2.67;;;;;;;20.51;49.47;98818.31;5027526;28;20049;-81
2022/05/03 10:29:31;;;;;;;7.00;2.10;;;;;;;20.95;49.38;98832.06;5030625;28;20057;-81
2022/05/03 10:32:02;;;;;;;3.65;2.30;;;;;;;20.94;47.75;98827.66;5030329;28;20486;-81
2022/05/03 10:34:42;;;;;;;3.63;2.58;;;;;;;20.83;48.93;98807.34;5030523;28;20464;-81
2022/05/03 10:37:10;;;;;;;2.60;2.38;;;;;;;21.32;48.30;98791.78;5025563;28;20111;-81
2022/05/03 10:39:45;;;;;;;6.45;2.92;;;;;;;21.49;47.46;98803.50;5024387;28;20072;-81
2022/05/03 10:42:16;;;;;;;11.80;3.13;;;;;;;21.59;48.45;98805.56;5018409;28;20049;-81
2022/05/03 10:44:45;;;;;;;8.50;2.90;;;;;;;21.54;46.53;98800.81;5015834;28;20045;-81
2022/05/03 10:47:19;;;;;;;4.65;2.88;;;;;;;21.90;45.69;98792.75;5031866;28;20136;-81
2022/05/03 10:50:20;;;;;;;8.57;2.78;;;;;;;22.02;47.91;98811.06;5031492;28;20057;-81
2022/05/03 10:53:17;;;;;;;3.65;2.13;;;;;;;21.24;48.94;98790.31;5028894;28;20050;-81
2022/05/03 10:56:05;;;;;;;4.75;2.30;;;;;;;21.32;51.02;98813.91;5025305;28;20523;-81
2022/05/03 10:58:34;;;;;;;3.03;2.70;;;;;;;20.83;50.25;98785.25;5025013;28;20055;-80
2022/05/03 11:01:08;;;;;;;3.33;2.33;;;;;;;20.62;49.73;98803.53;5021494;28;20397;-81
2022/05/03 11:03:38;;;;;;;4.15;2.92;;;;;;;21.14;48.67;98765.38;5029757;28;20128;-80
2022/05/03 11:06:38;;;;;;;4.45;2.60;;;;;;;21.50;47.25;98801.63;5030155;28;20057;-82
2022/05/03 11:09:15;;;;;;;4.60;2.72;;;;;;;21.61;48.10;98797.00;5030164;28;20065;-81
2022/05/03 11:11:55;;;;;;;3.70;2.88;;;;;;;20.81;47.64;98800.44;5030288;28;20057;-81
2022/05/03 11:14:53;;;;;;;2.97;2.38;;;;;;;20.57;48.67;98799.88;5027282;28;20049;-81
2022/05/03 11:17:20;;;;;;;4.78;3.40;;;;;;;19.93;50.69;98807.69;5028180;28;20045;-80
2022/05/03 11:20:02;;;;;;;5.18;3.30;;;;;;;19.79;51.56;98774.09;5030191;28;20504;-81
2022/05/03 11:22:32;;;;;;;4.82;3.13;;;;;;;20.26;51.26;98797.59;5029532;28;20055;-80
2022/05/03 11:25:00;;;;;;;4.63;3.08;;;;;;;20.11;49.72;98794.63;5030530;28;20061;-80
2022/05/03 11:27:27;;;;;;;3.00;2.65;;;;;;;19.92;49.29;98766.56;5029297;28;20064;-81
2022/05/03 11:29:59;;;;;;;4.38;2.80;;;;;;;20.73;49.52;98774.13;5030551;28;20477;-81
2022/05/03 11:32:31;;;;;;;2.83;2.58;;;;;;;21.45;49.48;98760.06;5027354;28;20486;-81
2022/05/03 11:35:04;;;;;;;3.30;2.50;;;;;;;21.59;48.23;98782.56;5031601;28;20068;-81
2022/05/03 11:37:31;;;;;;;2.97;2.45;;;;;;;21.84;47.59;98779.13;5033722;28;20429;-81
2022/05/03 11:40:06;;;;;;;3.50;1.60;;;;;;;21.79;41.00;98757.81;5033704;28;20053;-81
2022/05/03 11:42:38;;;;;;;2.90;1.77;;;;;;;21.83;39.91;98775.56;5020367;28;20512;-80
2022/05/03 11:45:06;;;;;;;5.20;1.73;;;;;;;21.84;39.98;98766.13;5013588;28;20064;-81
2022/05/03 11:47:35;;;;;;;4.72;1.65;;;;;;;21.44;40.80;98759.25;5013844;28;20474;-80
2022/05/03 11:50:04;;;;;;;1.90;1.60;;;;;;;22.04;41.53;98761.78;5023187;28;20072;-81
2022/05/03 11:57:56;;;;;;;3.67;2.13;;;;;;;22.16;41.82;98744.97;5033125;28;20409;-81
2022/05/03 12:00:22;;;;;;;5.13;2.10;;;;;;;21.87;42.93;98729.63;5032812;28;20050;-80
2022/05/03 12:02:49;;;;;;;3.25;2.30;;;;;;;22.35;43.77;98750.88;5032665;28;20053;-81
2022/05/03 12:05:19;;;;;;;4.55;2.67;;;;;;;21.99;43.36;98726.63;5032806;28;20107;-81
2022/05/03 12:11:04;;;;;;;4.30;2.30;;;;;;;22.08;42.87;98738.84;4971406;28;20089;-81
2022/05/03 12:13:34;;;;;;;2.80;1.58;;;;;;;21.70;38.71;98737.28;4968945;28;20138;-80
2022/05/03 12:16:10;;;;;;;3.88;1.48;;;;;;;22.22;34.82;98728.13;5017093;28;20508;-80
2022/05/03 12:18:39;;;;;;;3.20;1.40;;;;;;;22.41;35.05;98766.41;5032866;28;20053;-81
2022/05/03 12:21:10;;;;;;;5.68;1.50;;;;;;;22.69;36.05;98739.31;5032860;28;20428;-81
2022/05/03 12:23:43;;;;;;;3.80;2.00;;;;;;;22.82;37.23;98755.38;5030849;28;20046;-82
2022/05/03 12:26:20;;;;;;;3.30;2.05;;;;;;;22.49;39.25;98740.09;5032223;28;20049;-82
2022/05/03 12:28:50;;;;;;;4.63;2.70;;;;;;;21.99;40.89;98734.09;5032761;28;20482;-81